Time;durP1;ratioP1;P1;durP2;ratioP2;P2;SDS_P1;SDS_P2;PMS_P1;PMS_P2;Temp;Humidity;BMP_temperature;BMP_pressure;BME280_temperature;BME280_humidity;BME280_pressure;Samples;Min_cycle;Max_cycle;Signal;HPM_P1;HPM_P2
2022/11/14 00:00:25;;;;;;;47.80;30.52;;;6.80;99.90;;;;;;5016598;28;20060;-73
2022/11/14 00:02:51;;;;;;;46.10;29.73;;;6.80;99.90;;;;;;5005479;28;20121;-73
2022/11/14 00:05:16;;;;;;;46.22;31.00;;;6.80;99.90;;;;;;5017942;28;20073;-74
2022/11/14 00:07:42;;;;;;;46.72;30.65;;;6.80;99.90;;;;;;5018257;28;20107;-72
2022/11/14 00:10:08;;;;;;;46.72;30.40;;;6.90;99.90;;;;;;5018135;28;20037;-73
2022/11/14 00:12:34;;;;;;;41.20;30.35;;;6.90;99.90;;;;;;5001076;28;20085;-73
2022/11/14 00:14:59;;;;;;;44.80;29.98;;;7.20;99.90;;;;;;5018286;28;20171;-71
2022/11/14 00:17:25;;;;;;;44.05;31.27;;;7.00;99.90;;;;;;5018124;28;20374;-72
2022/11/14 00:19:50;;;;;;;45.47;30.23;;;6.90;99.90;;;;;;5017675;28;20042;-73
2022/11/14 00:22:16;;;;;;;45.15;31.95;;;6.90;99.90;;;;;;5017735;28;20046;-74
2022/11/14 00:24:42;;;;;;;45.38;32.28;;;6.90;99.90;;;;;;5018107;28;20038;-72
2022/11/14 00:27:11;;;;;;;47.15;33.10;;;6.90;99.90;;;;;;5016785;28;20083;-73
2022/11/14 00:29:40;;;;;;;47.25;32.05;;;6.90;99.90;;;;;;5018151;28;20129;-74
2022/11/14 00:32:06;;;;;;;47.67;31.88;;;6.90;99.90;;;;;;5018176;28;20046;-73
2022/11/14 00:34:32;;;;;;;44.92;32.80;;;6.90;99.90;;;;;;5017777;28;20544;-72
2022/11/14 00:36:58;;;;;;;43.72;30.10;;;6.90;99.90;;;;;;4999694;28;20517;-74
2022/11/14 00:39:24;;;;;;;51.80;34.35;;;6.90;99.90;;;;;;5017887;28;20092;-73
2022/11/14 00:41:50;;;;;;;44.58;33.15;;;7.00;99.90;;;;;;5000500;28;20451;-73
2022/11/14 00:44:15;;;;;;;46.63;33.35;;;7.00;99.90;;;;;;5018055;28;20061;-73
2022/11/14 00:46:41;;;;;;;51.60;36.33;;;7.00;99.90;;;;;;5018321;28;20054;-72
2022/11/14 00:49:06;;;;;;;51.42;34.83;;;7.10;99.90;;;;;;5017829;28;20088;-72
2022/11/14 00:51:32;;;;;;;50.15;34.38;;;7.00;99.90;;;;;;5017400;28;20374;-73
2022/11/14 00:53:58;;;;;;;50.45;36.10;;;7.00;99.90;;;;;;5017530;28;20053;-73
2022/11/14 00:56:23;;;;;;;52.35;37.65;;;7.00;99.90;;;;;;5017636;28;20124;-73
2022/11/14 00:58:49;;;;;;;49.20;36.03;;;7.00;99.90;;;;;;5017452;28;20335;-73
2022/11/14 01:01:14;;;;;;;53.67;37.55;;;7.00;99.90;;;;;;5017646;28;20084;-73
2022/11/14 01:03:40;;;;;;;58.00;37.80;;;7.00;99.90;;;;;;5017806;28;20049;-73
2022/11/14 01:06:09;;;;;;;52.58;39.03;;;7.00;99.90;;;;;;5016932;28;20128;-73
2022/11/14 01:08:35;;;;;;;57.35;38.92;;;7.00;99.90;;;;;;5017252;28;20042;-73
2022/11/14 01:11:12;;;;;;;59.70;38.72;;;7.00;99.90;;;;;;4999393;28;20360;-73
2022/11/14 01:13:38;;;;;;;56.55;40.80;;;7.00;99.90;;;;;;4999739;28;20046;-73
2022/11/14 01:16:04;;;;;;;59.35;40.45;;;7.00;99.90;;;;;;5016995;28;20038;-74
2022/11/14 01:18:30;;;;;;;59.70;43.05;;;7.00;99.90;;;;;;5017040;28;20057;-73
2022/11/14 01:20:55;;;;;;;62.70;43.85;;;7.00;99.90;;;;;;4999332;28;20353;-73
2022/11/14 01:23:21;;;;;;;65.05;46.40;;;7.00;99.90;;;;;;5016799;28;20049;-73
2022/11/14 01:25:46;;;;;;;68.63;47.05;;;7.00;99.90;;;;;;5017484;28;20037;-73
2022/11/14 01:28:15;;;;;;;69.72;48.58;;;6.90;99.90;;;;;;5016336;28;20058;-73
2022/11/14 01:30:41;;;;;;;69.50;50.05;;;6.90;99.90;;;;;;5016724;28;20046;-73
2022/11/14 01:33:08;;;;;;;70.63;47.70;;;6.90;99.90;;;;;;5016749;28;20354;-73
2022/11/14 01:35:35;;;;;;;75.85;52.40;;;6.80;99.90;;;;;;5016560;28;20037;-73
2022/11/14 01:38:01;;;;;;;74.63;52.25;;;6.80;99.90;;;;;;4998857;28;20355;-73
2022/11/14 01:40:27;;;;;;;74.80;54.53;;;6.90;99.90;;;;;;5016401;28;20049;-74
2022/11/14 01:43:15;;;;;;;76.55;52.30;;;6.80;99.90;;;;;;4999343;28;20037;-74
2022/11/14 01:46:00;;;;;;;74.25;52.17;;;6.80;99.90;;;;;;5001524;28;20260;-73
2022/11/14 01:48:41;;;;;;;77.10;52.72;;;6.80;99.90;;;;;;4999195;28;20049;-73
2022/11/14 01:51:24;;;;;;;76.28;51.60;;;6.80;99.90;;;;;;5016601;28;20125;-73
2022/11/14 01:53:54;;;;;;;79.40;52.60;;;6.70;99.90;;;;;;4998836;28;20064;-73
2022/11/14 01:56:41;;;;;;;78.60;51.58;;;6.70;99.90;;;;;;5016262;28;20038;-73
2022/11/14 01:59:16;;;;;;;78.65;53.47;;;6.70;99.90;;;;;;5016370;28;20045;-73
2022/11/14 02:01:48;;;;;;;80.43;52.13;;;6.70;99.90;;;;;;5015856;28;20061;-73
2022/11/14 02:04:19;;;;;;;81.53;54.08;;;6.70;99.90;;;;;;4998794;28;20111;-73
2022/11/14 02:06:45;;;;;;;83.63;53.95;;;6.70;99.90;;;;;;5016551;28;20195;-73
2022/11/14 02:09:10;;;;;;;80.53;53.97;;;6.70;99.90;;;;;;5016306;28;20046;-73
2022/11/14 02:11:43;;;;;;;85.15;54.58;;;6.70;99.90;;;;;;5015565;28;20064;-73
2022/11/14 02:14:10;;;;;;;85.55;54.47;;;6.70;99.90;;;;;;4982245;28;20050;-74
2022/11/14 02:16:40;;;;;;;78.03;52.65;;;6.70;99.90;;;;;;5015874;28;20046;-73
2022/11/14 02:19:07;;;;;;;84.78;55.42;;;6.70;99.90;;;;;;5015563;28;20385;-74
2022/11/14 02:21:32;;;;;;;82.75;53.95;;;6.70;99.90;;;;;;5015792;28;20450;-73
2022/11/14 02:23:58;;;;;;;79.63;53.65;;;6.70;99.90;;;;;;4998731;28;20060;-73
2022/11/14 02:26:23;;;;;;;85.15;54.70;;;6.70;99.90;;;;;;5016118;28;20077;-73
2022/11/14 02:28:50;;;;;;;85.10;54.83;;;6.70;99.90;;;;;;5015495;28;20433;-73
2022/11/14 02:31:16;;;;;;;87.57;54.40;;;6.70;99.90;;;;;;5015710;28;20112;-73
2022/11/14 02:33:41;;;;;;;87.55;53.30;;;6.90;99.90;;;;;;4998098;28;20438;-73
2022/11/14 02:36:08;;;;;;;84.00;52.70;;;6.70;99.90;;;;;;5015753;28;20125;-73
2022/11/14 02:38:34;;;;;;;84.72;53.10;;;6.80;99.90;;;;;;4982302;28;20129;-73
2022/11/14 02:41:00;;;;;;;82.95;54.83;;;6.80;99.90;;;;;;5015609;28;20513;-73
2022/11/14 02:43:25;;;;;;;84.28;51.67;;;6.80;99.90;;;;;;5015128;28;20121;-73
2022/11/14 02:45:51;;;;;;;90.85;53.40;;;6.80;99.90;;;;;;4998092;28;20054;-73
2022/11/14 02:48:17;;;;;;;84.32;55.47;;;6.80;99.90;;;;;;5015239;28;20073;-74
2022/11/14 02:50:43;;;;;;;85.88;53.30;;;6.80;99.90;;;;;;5015067;28;20108;-73
2022/11/14 02:53:08;;;;;;;82.93;53.25;;;7.00;99.90;;;;;;5015422;28;20092;-73
2022/11/14 02:55:34;;;;;;;83.53;52.45;;;6.90;99.90;;;;;;5015872;28;20042;-73
2022/11/14 02:58:00;;;;;;;86.03;52.80;;;6.80;99.90;;;;;;5015485;28;20034;-73
2022/11/14 03:00:25;;;;;;;83.28;53.08;;;6.80;99.90;;;;;;5015283;28;20494;-73
2022/11/14 03:02:54;;;;;;;87.75;53.50;;;6.80;99.90;;;;;;5014856;28;20042;-73
2022/11/14 03:05:20;;;;;;;83.10;53.53;;;6.90;99.90;;;;;;5015323;28;20057;-73
2022/11/14 03:07:45;;;;;;;83.90;53.05;;;6.90;99.90;;;;;;5015401;28;20050;-73
2022/11/14 03:10:12;;;;;;;83.70;52.75;;;7.20;99.90;;;;;;4997694;28;20453;-72
2022/11/14 03:12:38;;;;;;;80.47;51.80;;;6.90;99.90;;;;;;5015327;28;20472;-73
2022/11/14 03:15:05;;;;;;;78.85;51.38;;;6.90;99.90;;;;;;4998402;28;20104;-72
2022/11/14 03:17:32;;;;;;;77.40;51.65;;;6.90;99.90;;;;;;5014994;28;20053;-72
2022/11/14 03:19:59;;;;;;;76.50;50.53;;;6.90;99.90;;;;;;5014887;28;20038;-72
2022/11/14 03:22:27;;;;;;;77.72;51.22;;;6.90;99.90;;;;;;5015317;28;20049;-73
2022/11/14 03:24:53;;;;;;;77.13;51.90;;;6.80;99.90;;;;;;5015192;28;20038;-73
2022/11/14 03:27:19;;;;;;;79.78;52.50;;;6.80;99.90;;;;;;5015112;28;20053;-73
2022/11/14 03:29:49;;;;;;;76.88;52.10;;;6.90;99.90;;;;;;5015244;28;20073;-73
2022/11/14 03:32:15;;;;;;;80.80;51.67;;;6.80;99.90;;;;;;5014668;28;20037;-73
2022/11/14 03:34:41;;;;;;;76.07;49.47;;;6.90;99.90;;;;;;4997768;28;20041;-73
2022/11/14 03:37:06;;;;;;;80.03;50.67;;;6.90;99.90;;;;;;5015228;28;20049;-73
2022/11/14 03:39:32;;;;;;;76.55;51.58;;;6.90;99.90;;;;;;5014970;28;20049;-73
2022/11/14 03:41:58;;;;;;;78.15;52.05;;;6.90;99.90;;;;;;5015374;28;20514;-73
2022/11/14 03:44:23;;;;;;;77.80;52.50;;;6.20;99.90;;;;;;5014723;28;20046;-73
2022/11/14 03:46:51;;;;;;;74.22;50.03;;;6.90;99.90;;;;;;5014648;28;20339;-73
2022/11/14 03:49:17;;;;;;;74.43;51.97;;;6.90;99.90;;;;;;5014894;28;20041;-73
2022/11/14 03:51:42;;;;;;;72.72;49.33;;;6.90;99.90;;;;;;5014923;28;20454;-73
2022/11/14 03:54:11;;;;;;;72.15;48.67;;;6.80;99.90;;;;;;5014864;28;20045;-73
2022/11/14 03:56:36;;;;;;;72.47;51.92;;;6.90;99.90;;;;;;5014592;28;20054;-74
2022/11/14 03:59:02;;;;;;;74.38;50.80;;;6.90;99.90;;;;;;4998238;28;20049;-73
2022/11/14 04:01:28;;;;;;;77.15;51.55;;;6.90;99.90;;;;;;5015554;28;20045;-72
2022/11/14 04:03:54;;;;;;;76.10;51.97;;;6.90;99.90;;;;;;5018336;28;20038;-73
2022/11/14 04:06:19;;;;;;;80.20;51.88;;;6.90;99.90;;;;;;5018362;28;20100;-73
2022/11/14 04:08:45;;;;;;;73.95;51.97;;;6.90;99.90;;;;;;5018279;28;20034;-73
2022/11/14 04:11:11;;;;;;;78.93;52.22;;;6.80;99.90;;;;;;5000867;28;20062;-73
2022/11/14 04:13:36;;;;;;;75.22;51.45;;;6.80;99.90;;;;;;5000791;28;20426;-73
2022/11/14 04:16:02;;;;;;;71.50;50.70;;;6.80;99.90;;;;;;5017733;28;20117;-73
2022/11/14 04:18:28;;;;;;;73.32;51.00;;;6.90;99.90;;;;;;5018092;28;20072;-73
2022/11/14 04:20:53;;;;;;;78.47;53.60;;;6.80;99.90;;;;;;5017911;28;20029;-73
2022/11/14 04:23:19;;;;;;;75.00;52.22;;;6.80;99.90;;;;;;5018047;28;20112;-74
2022/11/14 04:25:46;;;;;;;76.15;51.15;;;6.80;99.90;;;;;;5017629;28;20045;-74
2022/11/14 04:28:12;;;;;;;75.45;52.80;;;6.90;99.90;;;;;;5017935;28;20061;-73
2022/11/14 04:30:38;;;;;;;76.88;50.13;;;6.80;99.90;;;;;;5017967;28;20057;-73
2022/11/14 04:33:03;;;;;;;73.00;50.80;;;6.80;99.90;;;;;;5017480;28;20362;-73
2022/11/14 04:35:29;;;;;;;69.80;50.35;;;6.80;99.90;;;;;;5017919;28;20037;-74
2022/11/14 04:37:55;;;;;;;80.00;52.13;;;6.80;99.90;;;;;;5018088;28;20049;-74
2022/11/14 04:40:20;;;;;;;73.05;50.63;;;6.80;99.90;;;;;;5017866;28;20449;-74
2022/11/14 04:42:46;;;;;;;74.82;49.92;;;6.80;99.90;;;;;;5017440;28;20096;-74
2022/11/14 04:45:12;;;;;;;70.05;49.97;;;6.80;99.90;;;;;;5017779;28;20051;-74
2022/11/14 04:47:40;;;;;;;68.45;51.15;;;6.80;99.90;;;;;;5017580;28;20390;-74
2022/11/14 04:50:07;;;;;;;77.05;53.50;;;6.90;99.90;;;;;;5017834;28;20038;-74
2022/11/14 04:52:32;;;;;;;74.35;51.92;;;6.80;99.90;;;;;;5017526;28;20048;-74
2022/11/14 04:54:58;;;;;;;71.30;50.92;;;7.10;99.90;;;;;;5017751;28;20464;-74
2022/11/14 04:57:24;;;;;;;74.80;52.42;;;6.70;99.90;;;;;;5017023;28;20061;-73
2022/11/14 04:59:49;;;;;;;72.80;50.97;;;6.80;99.90;;;;;;5017491;28;20096;-74
2022/11/14 05:02:15;;;;;;;73.88;50.67;;;6.80;99.90;;;;;;5017373;28;20041;-74
2022/11/14 05:04:43;;;;;;;74.47;51.60;;;6.80;99.90;;;;;;5000537;28;20045;-74
2022/11/14 05:07:08;;;;;;;73.47;50.78;;;6.80;99.90;;;;;;5017480;28;20073;-73
2022/11/14 05:09:35;;;;;;;74.47;51.97;;;6.80;99.90;;;;;;5017191;28;20061;-74
2022/11/14 05:12:01;;;;;;;77.80;53.35;;;6.90;99.90;;;;;;4999770;28;20124;-73
2022/11/14 05:14:27;;;;;;;67.32;49.60;;;6.80;99.90;;;;;;5016421;28;20353;-73
2022/11/14 05:16:53;;;;;;;71.82;50.65;;;6.80;99.90;;;;;;5016403;28;20038;-73
2022/11/14 05:19:18;;;;;;;69.32;50.88;;;6.80;99.90;;;;;;5017049;28;20042;-74
2022/11/14 05:21:46;;;;;;;71.95;50.30;;;6.80;99.90;;;;;;5016840;28;20045;-74
2022/11/14 05:24:12;;;;;;;72.85;50.83;;;6.70;99.90;;;;;;4984083;28;20046;-73
2022/11/14 05:26:38;;;;;;;75.80;51.08;;;6.70;99.90;;;;;;5016881;28;20042;-74
2022/11/14 05:29:04;;;;;;;74.53;52.13;;;6.70;99.90;;;;;;5016882;28;20131;-73
2022/11/14 05:31:30;;;;;;;81.22;53.10;;;6.70;99.90;;;;;;4999182;28;20085;-74
2022/11/14 05:33:55;;;;;;;73.07;50.95;;;6.70;99.90;;;;;;5016703;28;20038;-74
2022/11/14 05:36:21;;;;;;;76.70;52.45;;;6.70;99.90;;;;;;5016706;28;20077;-74
2022/11/14 05:38:46;;;;;;;76.65;51.70;;;6.80;99.90;;;;;;5016950;28;20049;-73
2022/11/14 05:41:15;;;;;;;78.20;50.83;;;6.70;99.90;;;;;;5016344;28;20042;-74
2022/11/14 05:43:41;;;;;;;73.05;52.22;;;6.70;99.90;;;;;;5016886;28;20040;-73
2022/11/14 05:46:10;;;;;;;77.05;48.78;;;6.70;99.90;;;;;;5016083;28;20054;-74
2022/11/14 05:48:36;;;;;;;76.10;51.92;;;6.70;99.90;;;;;;5016887;28;20469;-74
2022/11/14 05:51:03;;;;;;;76.85;50.95;;;6.80;99.90;;;;;;5016439;28;20409;-73
2022/11/14 05:53:30;;;;;;;74.97;50.40;;;6.70;99.90;;;;;;5016236;28;20085;-74
2022/11/14 05:56:00;;;;;;;75.80;50.97;;;6.70;99.90;;;;;;5016875;28;20405;-74
2022/11/14 05:58:26;;;;;;;71.35;49.75;;;6.70;99.90;;;;;;4998952;28;20406;-72
2022/11/14 06:00:52;;;;;;;69.63;51.08;;;6.60;99.90;;;;;;5015951;28;20037;-73
2022/11/14 06:03:17;;;;;;;75.63;51.63;;;6.60;99.90;;;;;;5016330;28;20042;-72
2022/11/14 06:05:43;;;;;;;75.22;50.85;;;6.60;99.90;;;;;;5016000;28;20050;-73
2022/11/14 06:08:08;;;;;;;78.93;52.63;;;6.60;99.90;;;;;;5016096;28;20041;-73
2022/11/14 06:10:34;;;;;;;73.90;50.72;;;6.60;99.90;;;;;;5015779;28;20089;-73
2022/11/14 06:13:00;;;;;;;79.28;51.95;;;6.60;99.90;;;;;;5016181;28;20046;-73
2022/11/14 06:15:26;;;;;;;72.78;51.20;;;6.60;99.90;;;;;;5016021;28;20048;-73
2022/11/14 06:17:57;;;;;;;74.97;48.33;;;6.60;99.90;;;;;;4998723;28;20133;-73
2022/11/14 06:20:22;;;;;;;74.60;49.00;;;6.60;99.90;;;;;;5015933;28;20438;-73
2022/11/14 06:22:48;;;;;;;84.32;51.97;;;6.60;99.90;;;;;;5015762;28;20048;-74
2022/11/14 06:25:13;;;;;;;81.53;51.05;;;6.60;99.90;;;;;;5015807;28;20045;-73
2022/11/14 06:27:41;;;;;;;84.25;53.83;;;6.50;99.90;;;;;;5015732;28;20370;-73
2022/11/14 06:30:10;;;;;;;84.28;52.85;;;6.50;99.90;;;;;;5015465;28;20037;-73
2022/11/14 06:32:36;;;;;;;78.03;51.58;;;6.50;99.90;;;;;;5015733;28;20393;-73
2022/11/14 06:35:01;;;;;;;81.57;52.78;;;6.50;99.90;;;;;;5015696;28;20037;-72
2022/11/14 06:37:27;;;;;;;79.97;50.78;;;6.50;99.90;;;;;;5016263;28;20500;-73
2022/11/14 06:39:53;;;;;;;79.05;50.53;;;6.40;99.90;;;;;;4998248;28;20049;-73
2022/11/14 06:42:18;;;;;;;79.40;51.05;;;7.00;99.90;;;;;;4982771;28;20355;-73
2022/11/14 06:44:44;;;;;;;77.90;51.67;;;6.40;99.90;;;;;;5015315;28;20077;-74
2022/11/14 06:47:09;;;;;;;83.18;52.33;;;6.30;99.90;;;;;;5015439;28;20454;-74
2022/11/14 06:49:35;;;;;;;89.60;52.97;;;6.50;99.90;;;;;;5015660;28;20391;-74
2022/11/14 06:52:00;;;;;;;83.68;51.85;;;6.20;99.90;;;;;;5015778;28;20042;-73
2022/11/14 06:54:26;;;;;;;83.28;51.65;;;6.30;99.90;;;;;;5015460;28;20504;-74
2022/11/14 06:56:51;;;;;;;81.50;51.17;;;6.80;99.90;;;;;;5015304;28;20377;-73
2022/11/14 06:59:17;;;;;;;76.35;50.95;;;6.20;99.90;;;;;;5014983;28;20042;-73
2022/11/14 07:01:43;;;;;;;83.72;52.15;;;6.20;99.90;;;;;;4981601;28;20049;-74
2022/11/14 07:04:08;;;;;;;84.70;52.20;;;6.10;99.90;;;;;;5015495;28;20048;-72
2022/11/14 07:06:34;;;;;;;84.47;52.92;;;6.10;99.90;;;;;;4997644;28;20434;-73
2022/11/14 07:08:59;;;;;;;79.90;50.88;;;6.10;99.90;;;;;;5015037;28;20038;-72
2022/11/14 07:11:28;;;;;;;81.53;51.20;;;6.10;99.90;;;;;;5015059;28;20077;-73
2022/11/14 07:13:58;;;;;;;83.45;53.45;;;6.10;99.90;;;;;;5015410;28;20077;-74
2022/11/14 07:16:34;;;;;;;82.65;52.00;;;6.10;99.90;;;;;;4995644;28;20109;-73
2022/11/14 07:19:01;;;;;;;87.50;53.70;;;6.10;99.90;;;;;;4995210;28;20466;-73
2022/11/14 07:21:28;;;;;;;89.63;52.50;;;6.10;99.90;;;;;;4995129;28;20048;-73
2022/11/14 07:23:57;;;;;;;88.40;53.50;;;6.10;99.90;;;;;;4995427;28;20042;-74
2022/11/14 07:26:23;;;;;;;84.65;51.05;;;6.10;99.90;;;;;;4995600;28;20034;-73
2022/11/14 07:28:49;;;;;;;90.35;52.63;;;6.10;99.90;;;;;;4996562;28;20034;-73
2022/11/14 07:31:17;;;;;;;84.80;52.72;;;6.10;99.90;;;;;;5014967;28;20447;-74
2022/11/14 07:33:43;;;;;;;92.22;53.67;;;6.20;99.90;;;;;;5014518;28;20513;-74
2022/11/14 07:36:11;;;;;;;89.32;54.20;;;6.10;99.90;;;;;;5015672;28;20107;-73
2022/11/14 07:38:40;;;;;;;86.50;52.72;;;6.20;99.90;;;;;;5001949;28;20076;-74
2022/11/14 07:41:15;;;;;;;85.68;52.45;;;6.20;99.90;;;;;;5018898;28;20046;-74
2022/11/14 07:43:41;;;;;;;89.13;55.05;;;6.20;99.90;;;;;;5018723;28;20069;-74
2022/11/14 07:46:10;;;;;;;94.20;55.42;;;6.20;99.90;;;;;;5018423;28;20030;-73
2022/11/14 07:48:37;;;;;;;88.18;54.15;;;6.20;99.90;;;;;;5018579;28;20054;-74
2022/11/14 07:51:05;;;;;;;88.28;53.90;;;6.20;99.90;;;;;;5019212;28;20041;-73
2022/11/14 07:53:30;;;;;;;93.55;56.35;;;6.20;99.90;;;;;;5018773;28;20041;-74
2022/11/14 07:56:01;;;;;;;89.82;54.00;;;6.20;99.90;;;;;;5018904;28;20077;-73
2022/11/14 07:58:27;;;;;;;89.05;52.83;;;6.60;99.90;;;;;;5001029;28;20060;-74
2022/11/14 08:00:52;;;;;;;85.70;53.67;;;6.20;99.90;;;;;;5018420;28;20046;-73
2022/11/14 08:03:18;;;;;;;83.68;52.80;;;6.20;99.90;;;;;;5018408;28;20046;-74
2022/11/14 08:05:43;;;;;;;83.88;52.08;;;6.20;99.90;;;;;;5000783;28;20357;-73
2022/11/14 08:08:09;;;;;;;81.47;52.67;;;6.30;99.90;;;;;;5018552;28;20057;-74
2022/11/14 08:10:35;;;;;;;81.97;51.10;;;6.30;99.90;;;;;;5017760;28;20053;-74
2022/11/14 08:13:03;;;;;;;83.40;53.22;;;6.30;99.90;;;;;;5018105;28;20046;-73
2022/11/14 08:15:29;;;;;;;81.22;51.97;;;6.30;99.90;;;;;;5017829;28;20061;-73
2022/11/14 08:17:59;;;;;;;83.82;53.25;;;6.40;99.90;;;;;;5018579;28;20117;-73
2022/11/14 08:20:26;;;;;;;79.45;53.30;;;6.40;99.90;;;;;;5018600;28;20144;-73
2022/11/14 08:22:53;;;;;;;76.65;49.72;;;6.40;99.90;;;;;;5000769;28;20370;-74
2022/11/14 08:25:18;;;;;;;78.38;49.50;;;6.40;99.90;;;;;;5017815;28;20393;-74
2022/11/14 08:27:44;;;;;;;71.07;48.00;;;6.50;99.90;;;;;;5018143;28;20133;-73
2022/11/14 08:30:13;;;;;;;80.35;52.00;;;6.40;99.90;;;;;;5001101;28;20053;-73
2022/11/14 08:32:38;;;;;;;77.10;51.72;;;6.50;99.90;;;;;;5000976;28;20378;-74
2022/11/14 08:35:05;;;;;;;77.72;50.97;;;6.50;99.90;;;;;;5017760;28;20054;-74
2022/11/14 08:37:31;;;;;;;75.88;49.92;;;6.60;99.90;;;;;;5018152;28;20128;-73
2022/11/14 08:39:56;;;;;;;74.53;48.53;;;6.60;99.90;;;;;;5017428;28;20564;-73
2022/11/14 08:42:22;;;;;;;73.78;49.35;;;6.60;99.90;;;;;;5018237;28;20042;-73
2022/11/14 08:44:47;;;;;;;73.63;51.15;;;6.60;99.90;;;;;;5017526;28;20096;-74
2022/11/14 08:47:13;;;;;;;76.15;50.67;;;6.50;99.90;;;;;;5017627;28;20450;-73
2022/11/14 08:49:38;;;;;;;73.63;49.70;;;6.60;99.90;;;;;;5016467;28;20358;-74
2022/11/14 08:52:04;;;;;;;77.72;52.00;;;6.60;99.90;;;;;;5017903;28;20125;-74
2022/11/14 08:54:29;;;;;;;68.95;48.20;;;6.60;99.90;;;;;;5017280;28;20138;-73
2022/11/14 08:56:55;;;;;;;72.82;48.80;;;6.70;99.90;;;;;;5017342;28;20106;-74
2022/11/14 08:59:20;;;;;;;75.35;50.25;;;6.70;99.90;;;;;;5017032;28;20100;-73
2022/11/14 09:01:46;;;;;;;68.95;48.85;;;6.70;99.90;;;;;;5017024;28;20125;-74
2022/11/14 09:04:12;;;;;;;69.80;47.90;;;6.80;99.90;;;;;;5017157;28;20354;-74
2022/11/14 09:06:39;;;;;;;69.00;48.20;;;6.80;99.90;;;;;;5017323;28;20125;-73
2022/11/14 09:09:05;;;;;;;69.82;48.60;;;6.80;99.90;;;;;;5017212;28;20034;-74
2022/11/14 09:11:31;;;;;;;67.60;47.33;;;6.90;99.90;;;;;;5016966;28;20058;-73
2022/11/14 09:13:56;;;;;;;67.38;47.55;;;6.90;99.90;;;;;;5017274;28;20049;-74
2022/11/14 09:16:22;;;;;;;70.17;48.97;;;6.90;99.90;;;;;;5128987;23;20118;-74
2022/11/14 09:18:47;;;;;;;66.90;47.40;;;6.90;99.90;;;;;;5035238;28;20061;-73
2022/11/14 09:21:13;;;;;;;68.30;47.45;;;7.00;99.90;;;;;;5036196;28;20049;-74
2022/11/14 09:23:38;;;;;;;68.97;47.90;;;6.90;99.90;;;;;;5036956;28;20052;-74
2022/11/14 09:26:06;;;;;;;68.07;47.72;;;7.00;99.90;;;;;;5036716;28;20052;-74
2022/11/14 09:28:32;;;;;;;66.00;48.40;;;7.20;99.90;;;;;;5036533;28;20091;-75
2022/11/14 09:31:05;;;;;;;65.05;46.78;;;7.30;99.90;;;;;;5036231;28;20060;-74
2022/11/14 09:33:32;;;;;;;64.97;47.08;;;7.10;99.90;;;;;;5036061;28;20037;-73
2022/11/14 09:36:00;;;;;;;65.75;47.78;;;7.20;99.90;;;;;;5036072;28;20037;-74
2022/11/14 09:38:26;;;;;;;59.00;44.22;;;7.20;99.90;;;;;;5035770;28;20048;-74
2022/11/14 09:40:59;;;;;;;63.33;44.55;;;7.20;99.90;;;;;;5036275;28;20059;-74
2022/11/14 09:43:46;;;;;;;63.03;46.47;;;7.30;99.90;;;;;;5035930;28;20536;-73
2022/11/14 09:46:51;;;;;;;63.05;45.50;;;7.30;99.90;;;;;;5036305;28;20080;-74
2022/11/14 09:49:31;;;;;;;60.17;44.30;;;7.30;99.90;;;;;;5036155;28;20049;-74
2022/11/14 09:52:04;;;;;;;61.08;45.17;;;7.40;99.90;;;;;;5036083;28;20037;-74
2022/11/14 09:54:41;;;;;;;64.15;45.95;;;7.40;99.90;;;;;;5018310;28;20121;-74
2022/11/14 09:57:15;;;;;;;62.35;45.70;;;7.30;99.90;;;;;;5036112;28;20045;-74
2022/11/14 09:59:41;;;;;;;63.47;45.35;;;7.40;99.90;;;;;;5035612;28;20056;-74
2022/11/14 10:02:19;;;;;;;60.17;46.00;;;7.40;99.90;;;;;;5035833;28;20362;-74
2022/11/14 10:05:18;;;;;;;67.03;46.47;;;7.50;99.90;;;;;;5036068;28;20041;-74
2022/11/14 10:08:14;;;;;;;60.70;45.10;;;7.60;99.90;;;;;;5001601;28;20037;-75
2022/11/14 10:10:50;;;;;;;60.97;45.20;;;7.70;99.90;;;;;;4980803;28;20474;-74
2022/11/14 10:13:35;;;;;;;62.22;44.47;;;7.70;99.90;;;;;;5035799;28;20091;-74
2022/11/14 10:16:32;;;;;;;60.35;44.70;;;7.80;99.90;;;;;;5035736;28;20102;-74
2022/11/14 10:19:32;;;;;;;57.22;42.40;;;7.90;99.90;;;;;;5018317;28;20059;-75
2022/11/14 10:22:06;;;;;;;54.88;43.40;;;7.90;99.90;;;;;;5035609;28;20048;-74
2022/11/14 10:25:17;;;;;;;62.25;44.83;;;7.80;99.90;;;;;;5001695;28;20901;-74
2022/11/14 10:27:55;;;;;;;61.97;44.50;;;7.80;99.90;;;;;;5035262;28;20132;-74
2022/11/14 10:30:21;;;;;;;61.90;45.00;;;7.80;99.90;;;;;;5035560;28;20037;-75
2022/11/14 10:32:55;;;;;;;58.58;43.30;;;7.80;99.90;;;;;;5034967;28;20353;-74
2022/11/14 10:35:30;;;;;;;54.75;43.63;;;7.80;99.90;;;;;;5035213;28;20068;-74
2022/11/14 10:38:18;;;;;;;58.17;44.45;;;7.70;99.90;;;;;;5035121;28;20036;-74
2022/11/14 10:40:45;;;;;;;58.55;43.38;;;7.80;99.90;;;;;;5035352;28;20068;-75
2022/11/14 10:43:23;;;;;;;60.65;44.20;;;7.90;99.90;;;;;;5017696;28;20033;-74
2022/11/14 10:45:56;;;;;;;56.33;42.70;;;7.90;99.90;;;;;;5035059;28;20041;-74
2022/11/14 10:48:42;;;;;;;58.30;43.65;;;8.00;99.90;;;;;;5001283;28;20044;-75
2022/11/14 10:51:13;;;;;;;57.22;42.92;;;7.90;99.90;;;;;;5017674;28;20037;-75
2022/11/14 10:53:48;;;;;;;52.75;40.95;;;7.90;99.90;;;;;;5034923;28;20073;-74
2022/11/14 10:56:13;;;;;;;51.75;42.08;;;8.00;99.90;;;;;;5035099;28;20408;-74
2022/11/14 10:58:40;;;;;;;49.60;39.10;;;8.10;99.90;;;;;;5034976;28;20117;-74
2022/11/14 11:01:31;;;;;;;51.47;39.30;;;8.10;99.90;;;;;;5017880;28;20084;-73
2022/11/14 11:03:56;;;;;;;54.30;40.92;;;8.10;99.90;;;;;;5017433;28;20120;-73
2022/11/14 11:06:27;;;;;;;51.90;39.92;;;8.10;99.90;;;;;;5035025;28;20164;-73
2022/11/14 11:11:50;;;;;;;49.25;40.42;;;8.10;99.90;;;;;;5034134;28;20052;-73
2022/11/14 11:14:18;;;;;;;51.78;38.78;;;8.10;99.90;;;;;;5035570;28;20120;-73
2022/11/14 11:16:45;;;;;;;51.28;37.97;;;8.20;99.90;;;;;;5034775;28;20045;-74
2022/11/14 11:19:25;;;;;;;48.35;38.17;;;8.30;99.90;;;;;;5034679;28;20049;-74
2022/11/14 11:21:52;;;;;;;47.15;37.65;;;8.30;99.90;;;;;;5035016;28;20120;-74
2022/11/14 11:24:34;;;;;;;47.83;37.35;;;8.60;99.90;;;;;;5034811;28;20065;-73
2022/11/14 11:27:22;;;;;;;49.28;38.03;;;8.30;99.90;;;;;;5016934;28;20057;-72
2022/11/14 11:30:17;;;;;;;52.45;38.60;;;8.30;99.90;;;;;;5034785;28;20116;-73
2022/11/14 11:32:43;;;;;;;49.33;38.70;;;8.20;99.90;;;;;;5034671;28;20084;-72
2022/11/14 11:35:12;;;;;;;49.08;38.35;;;8.20;99.90;;;;;;5034710;28;20025;-73
2022/11/14 11:37:43;;;;;;;50.65;38.00;;;8.20;99.90;;;;;;5034506;28;20060;-73
2022/11/14 11:40:16;;;;;;;48.40;37.65;;;8.10;99.90;;;;;;5034978;28;20038;-73
2022/11/14 11:42:51;;;;;;;57.88;40.25;;;8.10;99.90;;;;;;5035105;28;20140;-72
2022/11/14 11:45:18;;;;;;;47.72;37.83;;;8.20;99.90;;;;;;5034640;28;20048;-73
2022/11/14 11:47:50;;;;;;;47.92;37.20;;;8.20;99.90;;;;;;5034535;28;20033;-73
2022/11/14 11:50:19;;;;;;;48.60;38.53;;;8.20;99.90;;;;;;5001686;28;20053;-73
2022/11/14 11:53:04;;;;;;;46.63;36.63;;;8.30;99.90;;;;;;5034563;28;20092;-73
2022/11/14 11:55:32;;;;;;;46.60;38.45;;;8.30;99.90;;;;;;5034393;28;20070;-73
2022/11/14 11:58:18;;;;;;;46.30;37.35;;;8.40;99.90;;;;;;5034626;28;20056;-73
2022/11/14 12:00:44;;;;;;;45.75;37.13;;;8.40;99.90;;;;;;5034125;28;20513;-74
2022/11/14 12:03:14;;;;;;;44.72;36.13;;;8.40;99.90;;;;;;5034571;28;20144;-73
2022/11/14 12:06:07;;;;;;;45.50;36.75;;;8.40;99.90;;;;;;5017052;28;20052;-73
2022/11/14 12:08:54;;;;;;;47.90;37.35;;;8.30;99.90;;;;;;5034094;28;20037;-73
2022/11/14 12:11:23;;;;;;;46.53;35.95;;;8.30;99.90;;;;;;5034228;28;20034;-72
2022/11/14 12:14:32;;;;;;;45.92;37.08;;;8.30;99.90;;;;;;5034331;28;20052;-73
2022/11/14 12:17:28;;;;;;;47.45;35.95;;;8.20;99.90;;;;;;5034223;28;20100;-74
2022/11/14 12:20:00;;;;;;;47.65;36.88;;;8.20;99.90;;;;;;5034623;28;20089;-73
2022/11/14 12:22:28;;;;;;;48.60;36.60;;;8.20;99.90;;;;;;5013484;28;20128;-73
2022/11/14 12:25:31;;;;;;;46.45;38.22;;;8.20;99.90;;;;;;5018200;28;20042;-73
2022/11/14 12:28:27;;;;;;;49.25;38.72;;;8.20;99.90;;;;;;5017814;28;20042;-74
2022/11/14 12:30:59;;;;;;;49.60;37.75;;;8.30;99.90;;;;;;5018322;28;20350;-73
2022/11/14 12:34:10;;;;;;;49.60;39.17;;;8.30;99.90;;;;;;5017937;28;20044;-74
2022/11/14 12:36:37;;;;;;;48.60;38.53;;;8.30;99.90;;;;;;5003700;28;20060;-73
2022/11/14 12:39:02;;;;;;;46.83;36.78;;;8.30;99.90;;;;;;5017766;28;20038;-73
2022/11/14 12:41:35;;;;;;;48.10;38.22;;;8.30;99.90;;;;;;5017983;28;20413;-74
2022/11/14 12:44:33;;;;;;;45.10;36.55;;;8.30;99.90;;;;;;5018471;28;20050;-74
2022/11/14 12:47:04;;;;;;;48.83;38.40;;;8.40;99.90;;;;;;5017392;28;20049;-73
2022/11/14 12:49:52;;;;;;;50.22;38.40;;;8.40;99.90;;;;;;5017693;28;20108;-73